Richmond, Virginia
Current Conditions -  °F | °C
As of 6:54 PM on Friday 24 Oct 2014 (Local Time) from KRIC Reporting Station
Broken Clouds Broken Clouds  
Wind Chill: 58°   Ceiling: 30000
Heat Index: 58°   Visibility: 10mi
Dew Point: 44°   Wind: 0mph
Humidity: 60%   Direction: NA
Pressure: 29.94"   Gusts: NA
Location:  37.54°N, 77.43°W
Report Text: KRIC 242254Z 00000KT 10SM SCT220 BKN300 14/07 A2994 RMK AO2 SLP142 T01440067
Loading
Personal Weather Stations






























Interactive Weather Map
Tropical Storm Tracking
New forecast layout! Learn more

10-Day Weather Forecast

Advertisements
Track Severe Weather on mobile